Zellwood, Florida
Current Conditions -  °F | °C
As of 6:53 AM on Monday 26 Jan 2015 (Local Time) from KLEE Reporting Station
Few Clouds Few Clouds  
Wind Chill: 13°   Ceiling: Unl
Heat Index: 13°   Visibility: 10mi
Dew Point: 11°   Wind: 5mph
Humidity: 89%   Direction: 260°W
Pressure: 29.85"   Gusts: NA
Location:  28.73°N, 81.6°W
Report Text: KLEE 261153Z 26004KT 10SM FEW110 13/11 A2985 RMK AO2 SLP108 60007 70007 T01280111 10144 20128 53003
Loading
Personal Weather Stations






























Interactive Weather Map New forecast layout! Learn more

10-Day Weather Forecast

Advertisements
Track Severe Weather on mobile